Time;durP1;ratioP1;P1;durP2;ratioP2;P2;SDS_P1;SDS_P2;PMS_P1;PMS_P2;Temp;Humidity;BMP_temperature;BMP_pressure;BME280_temperature;BME280_humidity;BME280_pressure;Samples;Min_cycle;Max_cycle;Signal;HPM_P1;HPM_P2
2022/11/05 00:10:34;;;;;;;44.72;19.70;;;;;;;4.54;100.00;101563.00;5163388;28;20046;-71
2022/11/05 00:19:05;;;;;;;36.13;20.23;;;;;;;4.37;100.00;101573.97;5162611;28;20050;-70
2022/11/05 00:27:15;;;;;;;64.97;25.67;;;;;;;4.25;100.00;101586.28;5146718;28;20034;-71
2022/11/05 00:29:45;;;;;;;43.92;22.73;;;;;;;4.16;100.00;101592.25;5162774;28;20023;-71
2022/11/05 00:32:16;;;;;;;45.38;22.55;;;;;;;4.13;100.00;101590.66;5157222;28;20030;-71
2022/11/05 00:34:46;;;;;;;41.75;20.15;;;;;;;4.11;100.00;101599.69;5163175;28;20093;-71
2022/11/05 00:37:17;;;;;;;44.80;21.27;;;;;;;4.08;100.00;101599.91;5162649;28;20026;-71
2022/11/05 00:39:47;;;;;;;40.45;19.20;;;;;;;4.08;100.00;101606.06;5161717;28;20020;-71
2022/11/05 00:45:08;;;;;;;41.05;21.20;;;;;;;4.12;100.00;101620.00;5162708;28;20436;-71
2022/11/05 00:50:28;;;;;;;40.72;20.08;;;;;;;4.10;100.00;101627.19;5162635;28;20030;-71
2022/11/05 00:52:59;;;;;;;41.95;20.25;;;;;;;4.06;100.00;101626.53;5162836;28;20507;-72
2022/11/05 00:55:41;;;;;;;45.25;22.92;;;;;;;4.00;100.00;101629.63;5164893;28;20152;-71
2022/11/05 00:58:14;;;;;;;49.53;22.67;;;;;;;3.94;100.00;101632.72;5166367;28;20030;-71
2022/11/05 01:00:49;;;;;;;35.85;18.10;;;;;;;3.94;100.00;101635.38;5166946;28;20034;-71
2022/11/05 01:03:26;;;;;;;36.22;18.92;;;;;;;4.00;100.00;101640.25;5166470;28;20117;-71
2022/11/05 01:06:17;;;;;;;35.13;18.35;;;;;;;4.00;100.00;101632.28;5166978;28;20042;-71
2022/11/05 01:08:47;;;;;;;35.40;17.63;;;;;;;4.02;100.00;101637.50;5166052;28;20516;-71
2022/11/05 01:11:34;;;;;;;46.15;19.48;;;;;;;4.07;100.00;101646.00;5166092;28;20121;-71
2022/11/05 01:14:08;;;;;;;43.50;19.35;;;;;;;4.13;100.00;101656.22;5166629;28;20068;-72
2022/11/05 01:16:39;;;;;;;37.67;17.20;;;;;;;4.13;100.00;101653.56;5166570;28;20101;-72
2022/11/05 01:19:11;;;;;;;36.67;16.60;;;;;;;4.07;100.00;101654.81;5165936;28;20026;-72
2022/11/05 01:21:41;;;;;;;35.90;18.23;;;;;;;4.01;100.00;101651.72;5166258;28;20073;-72
2022/11/05 01:24:11;;;;;;;31.90;16.85;;;;;;;3.95;100.00;101650.34;5167069;28;20488;-72
2022/11/05 01:26:42;;;;;;;35.67;16.50;;;;;;;3.94;100.00;101658.41;5155750;28;20509;-73
2022/11/05 01:29:13;;;;;;;33.80;15.85;;;;;;;3.89;100.00;101658.72;5165788;28;20544;-72
2022/11/05 01:31:43;;;;;;;34.80;16.85;;;;;;;3.86;100.00;101658.91;5160856;28;20031;-72
2022/11/05 01:34:14;;;;;;;29.90;16.23;;;;;;;3.84;100.00;101650.22;5165817;28;20049;-72
2022/11/05 01:36:44;;;;;;;36.20;16.98;;;;;;;3.82;100.00;101652.97;5165987;28;20093;-71
2022/11/05 01:39:14;;;;;;;42.28;18.95;;;;;;;3.80;100.00;101660.19;5165963;28;20396;-71
2022/11/05 01:41:45;;;;;;;91.00;22.33;;;;;;;3.78;100.00;101647.97;5166369;28;20030;-71
2022/11/05 01:44:58;;;;;;;38.53;19.38;;;;;;;3.76;100.00;101652.53;5166257;28;20053;-71
2022/11/05 01:47:45;;;;;;;35.45;18.88;;;;;;;3.70;100.00;101645.81;5155248;28;20030;-71
2022/11/05 01:50:40;;;;;;;44.13;19.80;;;;;;;3.73;100.00;101645.63;5165727;28;20034;-72
2022/11/05 01:53:20;;;;;;;43.70;20.02;;;;;;;3.74;100.00;101649.13;5165584;28;20041;-71
2022/11/05 01:56:01;;;;;;;42.05;20.38;;;;;;;3.73;100.00;101648.28;5165925;28;20022;-72
2022/11/05 01:58:57;;;;;;;129.10;24.40;;;;;;;3.71;100.00;101644.88;5152597;28;20500;-72
2022/11/05 02:01:28;;;;;;;239.65;29.98;;;;;;;3.66;100.00;101648.78;5165484;28;20085;-70
2022/11/05 02:04:03;;;;;;;43.47;16.23;;;;;;;3.59;100.00;101659.81;5166303;28;20027;-70
2022/11/05 02:06:41;;;;;;;27.67;13.65;;;;;;;3.55;100.00;101665.41;5165485;28;20113;-71
2022/11/05 02:09:30;;;;;;;34.97;17.00;;;;;;;3.68;100.00;101650.41;5165453;28;20022;-72
2022/11/05 02:12:00;;;;;;;41.60;18.25;;;;;;;3.78;100.00;101646.16;5165676;28;20038;-71
2022/11/05 02:14:31;;;;;;;41.03;18.35;;;;;;;3.77;100.00;101655.09;5165739;28;20489;-71
2022/11/05 02:17:15;;;;;;;40.88;17.92;;;;;;;3.77;100.00;101654.25;5165676;28;20497;-72
2022/11/05 02:20:14;;;;;;;39.42;18.83;;;;;;;3.71;100.00;101658.13;5166112;28;20037;-71
2022/11/05 02:23:22;;;;;;;35.95;17.27;;;;;;;3.58;100.00;101657.25;5165652;28;20022;-71
2022/11/05 02:26:14;;;;;;;32.58;15.93;;;;;;;3.53;100.00;101660.22;5164254;28;20023;-72
2022/11/05 02:29:10;;;;;;;46.28;19.48;;;;;;;3.53;100.00;101659.38;5160928;28;20042;-71
2022/11/05 02:32:00;;;;;;;42.28;18.63;;;;;;;3.50;100.00;101662.22;5159738;28;20106;-72
2022/11/05 02:34:36;;;;;;;39.97;19.08;;;;;;;3.44;100.00;101655.50;5165380;28;20564;-71
2022/11/05 02:37:48;;;;;;;45.78;19.10;;;;;;;3.42;100.00;101654.78;5164948;28;20038;-71
2022/11/05 02:40:27;;;;;;;43.92;19.73;;;;;;;3.46;100.00;101655.41;5162814;28;20374;-70
2022/11/05 02:43:16;;;;;;;50.97;20.15;;;;;;;3.50;100.00;101656.91;5163679;28;20512;-70
2022/11/05 02:46:25;;;;;;;41.17;18.75;;;;;;;3.56;100.00;101660.00;5165149;28;20512;-71
2022/11/05 02:49:02;;;;;;;44.88;19.05;;;;;;;3.58;100.00;101655.47;5153684;28;20030;-70
2022/11/05 02:51:41;;;;;;;42.90;20.60;;;;;;;3.60;100.00;101652.69;5164715;28;20121;-70
2022/11/05 02:54:30;;;;;;;41.72;19.15;;;;;;;3.56;100.00;101654.69;5165179;28;20023;-70
2022/11/05 02:57:02;;;;;;;43.17;18.42;;;;;;;3.52;100.00;101655.03;5153622;28;20370;-71
2022/11/05 02:59:33;;;;;;;35.90;17.05;;;;;;;3.47;100.00;101657.13;5164588;28;20019;-70
2022/11/05 03:02:05;;;;;;;48.65;18.58;;;;;;;3.45;100.00;101654.56;5164837;28;20034;-70
2022/11/05 03:04:35;;;;;;;45.92;18.25;;;;;;;3.47;100.00;101642.06;5164593;28;20077;-71
2022/11/05 03:07:29;;;;;;;49.92;21.00;;;;;;;3.48;100.00;101650.88;5164306;28;20026;-70
2022/11/05 03:10:13;;;;;;;43.10;18.58;;;;;;;3.49;100.00;101656.06;5153508;28;20027;-70
2022/11/05 03:13:21;;;;;;;45.20;18.88;;;;;;;3.49;100.00;101649.91;5164880;28;20030;-70
2022/11/05 03:16:05;;;;;;;45.10;18.10;;;;;;;3.50;100.00;101649.78;5164392;28;20109;-70
2022/11/05 03:18:44;;;;;;;43.22;18.17;;;;;;;3.53;100.00;101643.47;5162826;28;20572;-70
2022/11/05 03:21:40;;;;;;;46.40;20.55;;;;;;;3.55;100.00;101649.50;5164798;28;20158;-70
2022/11/05 03:24:16;;;;;;;48.72;19.70;;;;;;;3.56;100.00;101652.03;5165039;28;20481;-70
2022/11/05 03:26:58;;;;;;;47.45;20.52;;;;;;;3.55;100.00;101650.34;5152240;28;20066;-72
2022/11/05 03:29:51;;;;;;;40.80;18.88;;;;;;;3.49;100.00;101645.44;5164431;28;20046;-72
2022/11/05 03:32:26;;;;;;;48.25;18.55;;;;;;;3.44;100.00;101652.00;5158092;28;20026;-72
2022/11/05 03:35:04;;;;;;;41.95;18.23;;;;;;;3.41;100.00;101646.91;5164271;28;20510;-71
2022/11/05 03:37:38;;;;;;;41.45;17.65;;;;;;;3.41;100.00;101657.50;5164443;28;20150;-71
2022/11/05 03:40:11;;;;;;;45.33;19.90;;;;;;;3.45;100.00;101651.91;5164694;28;20018;-71
2022/11/05 03:42:47;;;;;;;40.63;17.55;;;;;;;3.44;100.00;101654.66;5164626;28;20072;-71
2022/11/05 03:45:26;;;;;;;37.70;17.95;;;;;;;3.41;100.00;101652.19;5164347;28;20018;-70
2022/11/05 03:48:00;;;;;;;40.83;17.23;;;;;;;3.40;100.00;101661.97;5164007;28;20037;-71
2022/11/05 03:50:41;;;;;;;45.70;19.42;;;;;;;3.44;100.00;101660.81;5163997;28;20080;-71
2022/11/05 03:53:15;;;;;;;46.90;20.13;;;;;;;3.43;100.00;101658.28;5163769;28;20399;-71
2022/11/05 03:56:10;;;;;;;61.22;20.17;;;;;;;3.34;100.00;101662.38;5164280;28;20202;-71
2022/11/05 03:58:43;;;;;;;66.25;18.83;;;;;;;3.25;100.00;101652.34;5162224;28;20034;-71
2022/11/05 04:01:14;;;;;;;52.55;20.75;;;;;;;3.22;100.00;101655.22;5163839;28;20026;-70
2022/11/05 04:03:45;;;;;;;49.50;20.88;;;;;;;3.23;100.00;101652.47;5163793;28;20030;-70
2022/11/05 04:14:43;;;;;;;43.97;16.17;;;;;;;3.10;100.00;101659.50;5163081;28;20018;-71
2022/11/05 04:17:14;;;;;;;35.78;15.55;;;;;;;3.06;100.00;101666.81;5163070;28;20034;-70
2022/11/05 04:25:24;;;;;;;85.63;14.35;;;;;;;2.81;100.00;101671.94;5166245;28;20105;-70
2022/11/05 04:27:59;;;;;;;118.03;15.18;;;;;;;2.75;100.00;101667.03;5163219;28;20407;-70
2022/11/05 04:30:29;;;;;;;302.40;24.75;;;;;;;2.71;100.00;101661.09;5162943;28;20102;-71
2022/11/05 04:33:11;;;;;;;399.80;32.63;;;;;;;2.69;100.00;101662.97;5157865;28;20470;-71
2022/11/05 04:35:47;;;;;;;28.38;12.90;;;;;;;2.68;100.00;101671.00;5162796;28;20069;-71
2022/11/05 04:38:18;;;;;;;41.88;17.40;;;;;;;2.66;100.00;101668.47;5162716;28;20486;-70
2022/11/05 04:40:49;;;;;;;53.40;22.02;;;;;;;2.71;100.00;101674.34;5163319;28;20545;-70
2022/11/05 04:43:19;;;;;;;48.80;21.33;;;;;;;2.80;100.00;101675.53;5163236;28;20023;-71
2022/11/05 04:45:50;;;;;;;57.63;22.65;;;;;;;2.83;100.00;101691.25;5162816;28;20042;-70
2022/11/05 04:48:20;;;;;;;52.35;20.42;;;;;;;2.87;100.00;101678.69;5162361;28;20032;-70
2022/11/05 04:50:51;;;;;;;56.42;21.05;;;;;;;2.87;100.00;101684.81;5163180;28;20092;-70
2022/11/05 04:53:21;;;;;;;65.70;23.25;;;;;;;2.84;100.00;101677.91;5163115;28;20026;-71
2022/11/05 04:55:52;;;;;;;76.75;23.10;;;;;;;2.84;100.00;101685.84;5163214;28;20034;-72
2022/11/05 04:58:22;;;;;;;46.53;19.25;;;;;;;2.78;100.00;101688.88;5162157;28;20109;-71
2022/11/05 05:00:53;;;;;;;38.42;17.13;;;;;;;2.76;100.00;101696.09;5162996;28;20030;-72
2022/11/05 05:03:23;;;;;;;44.00;19.48;;;;;;;2.79;100.00;101687.09;5163156;28;20049;-71
2022/11/05 05:05:54;;;;;;;47.33;19.50;;;;;;;2.91;100.00;101694.25;5162888;28;20058;-72
2022/11/05 05:08:24;;;;;;;55.63;21.55;;;;;;;3.03;100.00;101692.66;5162498;28;20050;-72
2022/11/05 05:10:55;;;;;;;53.88;21.90;;;;;;;3.14;100.00;101689.31;5162448;28;20025;-72
2022/11/05 05:13:25;;;;;;;60.00;24.67;;;;;;;3.26;100.00;101696.47;5163179;28;20026;-71
2022/11/05 05:15:56;;;;;;;67.60;24.77;;;;;;;3.40;100.00;101693.78;5163324;28;20073;-70
2022/11/05 05:18:27;;;;;;;53.75;22.38;;;;;;;3.47;100.00;101702.22;5162709;28;20434;-72
2022/11/05 05:23:47;;;;;;;51.75;19.95;;;;;;;3.45;100.00;101706.75;5162743;28;20096;-71
2022/11/05 05:26:18;;;;;;;70.28;17.00;;;;;;;3.37;100.00;101704.63;5156566;28;20043;-71
2022/11/05 05:28:48;;;;;;;27.95;13.13;;;;;;;3.29;100.00;101702.44;5158899;28;20038;-71
2022/11/05 05:31:20;;;;;;;38.83;16.05;;;;;;;3.19;100.00;101701.34;5159946;28;20023;-71
2022/11/05 05:33:53;;;;;;;49.97;18.77;;;;;;;3.13;100.00;101699.06;5160231;28;20478;-72
2022/11/05 05:36:24;;;;;;;37.33;15.88;;;;;;;3.08;100.00;101706.47;5162910;28;20081;-70
2022/11/05 05:38:55;;;;;;;38.90;14.77;;;;;;;3.01;100.00;101708.66;5162330;28;20022;-70
2022/11/05 05:41:25;;;;;;;34.25;14.57;;;;;;;2.97;100.00;101706.31;5164824;28;20023;-71
2022/11/05 05:43:56;;;;;;;409.10;29.80;;;;;;;2.91;100.00;101704.88;5166822;28;20465;-71
2022/11/05 05:46:26;;;;;;;317.08;18.65;;;;;;;2.82;100.00;101702.81;5166120;28;20038;-71
2022/11/05 05:48:57;;;;;;;476.33;31.52;;;;;;;2.73;100.00;101709.53;5164736;28;20549;-70
2022/11/05 05:51:27;;;;;;;58.65;12.98;;;;;;;2.62;100.00;101705.84;5166119;28;20031;-70
2022/11/05 05:53:57;;;;;;;103.78;16.33;;;;;;;2.54;100.00;101704.50;5166216;28;20473;-69
2022/11/05 05:56:28;;;;;;;30.83;13.13;;;;;;;2.47;100.00;101707.63;5166378;28;20026;-69
2022/11/05 05:58:58;;;;;;;37.58;15.30;;;;;;;2.44;100.00;101707.81;5165200;28;20033;-69
2022/11/05 06:01:29;;;;;;;33.40;13.68;;;;;;;2.40;100.00;101723.00;5165924;28;20060;-69
2022/11/05 06:03:59;;;;;;;40.53;17.05;;;;;;;2.43;100.00;101719.34;5165927;28;20469;-69
2022/11/05 06:06:30;;;;;;;48.08;17.83;;;;;;;2.44;100.00;101715.75;5165715;28;20500;-70
2022/11/05 06:09:00;;;;;;;45.42;18.75;;;;;;;2.47;100.00;101720.88;5165230;28;20453;-69
2022/11/05 06:11:31;;;;;;;38.40;16.75;;;;;;;2.48;100.00;101720.75;5165334;28;20142;-69
2022/11/05 06:14:01;;;;;;;48.92;18.23;;;;;;;2.45;100.00;101717.44;5166074;28;20433;-70
2022/11/05 06:16:34;;;;;;;48.92;18.23;;;;;;;2.43;100.00;101727.28;5165775;28;20109;-70
2022/11/05 06:19:06;;;;;;;38.40;17.13;;;;;;;2.38;100.00;101718.78;5165302;28;20054;-69
2022/11/05 06:21:36;;;;;;;35.78;15.93;;;;;;;2.32;100.00;101720.84;5165640;28;20486;-70
2022/11/05 06:24:07;;;;;;;33.58;15.40;;;;;;;2.27;100.00;101722.06;5165394;28;20044;-70
2022/11/05 06:26:41;;;;;;;36.88;16.45;;;;;;;2.23;100.00;101707.28;5156311;28;20538;-69
2022/11/05 06:29:12;;;;;;;32.80;15.05;;;;;;;2.22;100.00;101724.13;5164471;28;20131;-69
2022/11/05 06:31:42;;;;;;;39.22;15.80;;;;;;;2.16;100.00;101720.06;5159466;28;20393;-70
2022/11/05 06:34:12;;;;;;;37.65;16.55;;;;;;;2.11;100.00;101721.25;5165022;28;20473;-69
2022/11/05 06:36:43;;;;;;;46.65;18.23;;;;;;;2.06;100.00;101730.34;5164932;28;20113;-69
2022/11/05 06:39:13;;;;;;;46.38;17.98;;;;;;;2.03;100.00;101733.16;5165286;28;20057;-69
2022/11/05 06:41:44;;;;;;;176.95;28.77;;;;;;;2.02;100.00;101733.25;5165091;28;20029;-70
2022/11/05 06:44:14;;;;;;;84.68;20.38;;;;;;;2.00;100.00;101733.31;5165819;28;20061;-70
2022/11/05 06:46:46;;;;;;;40.05;17.63;;;;;;;2.00;100.00;101732.47;5160492;28;20029;-69
2022/11/05 06:49:16;;;;;;;55.88;17.05;;;;;;;2.01;100.00;101734.19;5145096;28;20057;-69
2022/11/05 06:51:47;;;;;;;36.70;15.43;;;;;;;2.02;100.00;101738.53;5155495;28;20058;-69
2022/11/05 06:54:17;;;;;;;46.97;19.75;;;;;;;2.09;100.00;101734.56;5162303;28;20029;-69
2022/11/05 06:56:48;;;;;;;43.17;18.63;;;;;;;2.11;100.00;101748.59;5163009;28;20030;-69
2022/11/05 06:59:18;;;;;;;46.05;19.88;;;;;;;2.12;100.00;101739.72;5162802;28;20029;-70
2022/11/05 07:01:49;;;;;;;49.30;20.40;;;;;;;2.12;100.00;101741.50;5163431;28;20384;-70
2022/11/05 07:04:20;;;;;;;58.40;22.55;;;;;;;2.12;100.00;101745.00;5163458;28;20034;-69
2022/11/05 07:06:50;;;;;;;51.30;21.42;;;;;;;2.14;100.00;101748.41;5161776;28;20022;-70
2022/11/05 07:09:21;;;;;;;54.05;22.00;;;;;;;2.26;100.00;101753.00;5162815;28;20030;-70
2022/11/05 07:11:54;;;;;;;57.47;22.90;;;;;;;2.35;100.00;101751.56;5162766;28;20081;-70
2022/11/05 07:14:25;;;;;;;51.17;22.00;;;;;;;2.39;100.00;101747.78;5163382;28;20108;-70
2022/11/05 07:16:56;;;;;;;50.05;20.95;;;;;;;2.44;100.00;101752.81;5162660;28;20030;-70
2022/11/05 07:19:27;;;;;;;62.72;24.10;;;;;;;2.48;100.00;101757.84;5163074;28;20602;-70
2022/11/05 07:21:57;;;;;;;49.33;21.83;;;;;;;2.54;100.00;101764.56;5163197;28;20030;-70
2022/11/05 07:24:28;;;;;;;49.08;22.20;;;;;;;2.63;100.00;101764.03;5149911;28;20466;-69
2022/11/05 07:26:58;;;;;;;61.28;24.80;;;;;;;2.84;100.00;101772.47;5154465;28;20409;-70
2022/11/05 07:29:29;;;;;;;44.47;20.42;;;;;;;3.16;100.00;101764.31;5162932;28;20038;-70
2022/11/05 07:31:59;;;;;;;59.70;22.80;;;;;;;3.59;100.00;101778.38;5156997;28;20108;-70
2022/11/05 07:34:30;;;;;;;57.80;19.98;;;;;;;4.01;100.00;101784.47;5163145;28;20018;-70
2022/11/05 07:37:00;;;;;;;39.17;17.17;;;;;;;4.43;100.00;101791.41;5161917;28;20092;-70
2022/11/05 07:39:31;;;;;;;38.60;17.25;;;;;;;4.82;100.00;101784.31;5162998;28;20101;-70
2022/11/05 07:42:01;;;;;;;37.85;15.02;;;;;;;5.15;100.00;101781.09;5162618;28;20389;-71
2022/11/05 07:44:32;;;;;;;33.97;13.07;;;;;;;5.70;100.00;101782.47;5163021;28;20028;-70
2022/11/05 07:47:02;;;;;;;35.55;12.25;;;;;;;5.90;100.00;101794.31;5161853;28;20114;-71
2022/11/05 07:49:33;;;;;;;25.75;11.25;;;;;;;6.17;100.00;101788.78;5162592;28;20057;-70
2022/11/05 07:52:03;;;;;;;27.95;12.15;;;;;;;6.44;100.00;101789.38;5157459;28;20023;-71
2022/11/05 07:54:34;;;;;;;21.50;11.35;;;;;;;6.75;100.00;101784.38;5151401;28;20533;-71
2022/11/05 07:57:04;;;;;;;27.83;10.35;;;;;;;7.00;100.00;101789.50;5153558;28;20014;-70
2022/11/05 07:59:35;;;;;;;18.48;9.93;;;;;;;7.25;100.00;101796.41;5156594;28;20019;-71
2022/11/05 08:02:09;;;;;;;24.55;10.98;;;;;;;7.41;100.00;101789.84;5153824;28;20033;-71
2022/11/05 08:04:41;;;;;;;24.42;10.10;;;;;;;7.63;100.00;101794.31;5163628;28;20063;-71
2022/11/05 08:07:11;;;;;;;23.75;10.25;;;;;;;7.75;100.00;101783.47;5163157;28;20453;-71
2022/11/05 08:09:42;;;;;;;21.67;10.25;;;;;;;7.93;100.00;101778.47;5161523;28;20041;-71
2022/11/05 08:12:12;;;;;;;19.73;10.30;;;;;;;8.14;100.00;101783.00;5163314;28;20026;-71
2022/11/05 08:14:43;;;;;;;28.02;10.27;;;;;;;8.48;100.00;101783.72;5163726;28;20022;-71
2022/11/05 08:17:13;;;;;;;27.30;10.98;;;;;;;8.72;100.00;101784.31;5162667;28;20080;-71
2022/11/05 08:19:44;;;;;;;22.27;9.48;;;;;;;9.02;100.00;101780.81;5163377;28;20029;-71
2022/11/05 08:22:14;;;;;;;19.90;9.30;;;;;;;9.05;100.00;101775.19;5163094;28;20030;-71
2022/11/05 08:24:45;;;;;;;18.88;8.95;;;;;;;9.24;100.00;101781.63;5164688;28;20532;-71
2022/11/05 08:27:15;;;;;;;18.98;9.45;;;;;;;9.40;100.00;101783.81;5165112;28;20027;-71
2022/11/05 08:29:45;;;;;;;17.65;8.52;;;;;;;9.50;100.00;101777.50;5163182;28;20065;-71
2022/11/05 08:32:16;;;;;;;20.50;9.07;;;;;;;10.02;100.00;101778.13;5157470;28;20469;-71
2022/11/05 08:34:46;;;;;;;21.17;9.27;;;;;;;10.53;100.00;101773.50;5163244;28;20027;-71
2022/11/05 08:37:17;;;;;;;20.83;8.63;;;;;;;11.00;100.00;101778.91;5162121;28;20022;-71
2022/11/05 08:39:48;;;;;;;20.50;7.97;;;;;;;11.29;100.00;101776.94;5163091;28;20466;-72
2022/11/05 08:42:18;;;;;;;19.70;8.80;;;;;;;10.90;100.00;101778.94;5163058;28;20105;-71
2022/11/05 08:44:48;;;;;;;24.00;9.07;;;;;;;10.39;100.00;101780.13;5163209;28;20023;-71
2022/11/05 08:47:19;;;;;;;20.13;8.88;;;;;;;9.76;100.00;101776.97;5162558;28;20509;-71
2022/11/05 08:49:49;;;;;;;23.73;9.60;;;;;;;9.02;100.00;101771.94;5162527;28;20022;-71
2022/11/05 08:52:20;;;;;;;19.20;8.75;;;;;;;8.72;100.00;101772.75;5162969;28;20105;-71
2022/11/05 08:54:50;;;;;;;22.25;10.05;;;;;;;8.70;100.00;101774.72;5162887;28;20050;-71
2022/11/05 08:57:21;;;;;;;23.75;10.23;;;;;;;8.68;100.00;101784.69;5162435;28;20033;-71
2022/11/05 08:59:51;;;;;;;25.30;9.65;;;;;;;8.64;100.00;101783.28;5162671;28;20025;-71
2022/11/05 09:02:23;;;;;;;22.33;9.02;;;;;;;8.44;100.00;101793.00;5162972;28;20062;-71
2022/11/05 09:04:53;;;;;;;23.05;9.77;;;;;;;8.37;100.00;101794.47;5162890;28;20540;-72
2022/11/05 09:07:23;;;;;;;24.30;9.98;;;;;;;8.26;100.00;101792.66;5162210;28;20022;-71
2022/11/05 09:09:54;;;;;;;30.02;9.77;;;;;;;8.24;100.00;101791.97;5162771;28;20117;-71
2022/11/05 09:12:24;;;;;;;23.95;10.32;;;;;;;8.22;100.00;101799.25;5162642;28;20058;-71
2022/11/05 09:14:55;;;;;;;20.33;10.23;;;;;;;8.23;100.00;101784.88;5162441;28;20030;-72
2022/11/05 09:17:25;;;;;;;21.30;10.02;;;;;;;8.26;100.00;101790.00;5165532;28;20061;-71
2022/11/05 09:19:56;;;;;;;24.15;9.95;;;;;;;8.22;100.00;101796.56;5166707;28;20486;-71
2022/11/05 09:22:26;;;;;;;20.05;10.00;;;;;;;8.28;100.00;101796.94;5166432;28;20037;-71
2022/11/05 09:24:57;;;;;;;18.02;8.98;;;;;;;8.22;100.00;101793.91;5170009;28;20018;-71
2022/11/05 09:27:27;;;;;;;19.25;9.18;;;;;;;8.30;100.00;101796.78;5154408;28;20061;-71
2022/11/05 09:29:58;;;;;;;21.60;9.88;;;;;;;8.40;100.00;101799.56;5166373;28;20385;-71
2022/11/05 09:32:30;;;;;;;20.30;10.35;;;;;;;8.50;100.00;101798.66;5160851;28;20030;-71
2022/11/05 09:35:01;;;;;;;24.70;9.40;;;;;;;8.60;100.00;101792.53;5166366;28;20054;-71
2022/11/05 09:37:31;;;;;;;21.33;8.80;;;;;;;8.70;100.00;101804.16;5165612;28;20466;-71
2022/11/05 09:40:02;;;;;;;17.63;9.25;;;;;;;8.77;100.00;101805.31;5166311;28;20030;-71
2022/11/05 09:42:45;;;;;;;21.25;8.10;;;;;;;8.74;100.00;101800.25;5166145;28;20018;-71
2022/11/05 09:45:19;;;;;;;23.67;9.07;;;;;;;8.76;100.00;101804.47;5166012;28;20052;-71
2022/11/05 09:47:55;;;;;;;16.45;8.05;;;;;;;8.83;100.00;101804.78;5165613;28;20030;-71
2022/11/05 09:50:38;;;;;;;15.60;8.23;;;;;;;8.90;100.00;101799.78;5153612;28;20540;-71
2022/11/05 09:53:13;;;;;;;15.30;7.68;;;;;;;9.02;100.00;101796.88;5166061;28;20109;-71
2022/11/05 09:55:48;;;;;;;;;;;;;;;9.00;100.00;101798.84;5166844;28;20053;-71
2022/11/05 09:58:36;;;;;;;18.48;7.57;;;;;;;9.05;100.00;101796.63;5165010;28;20329;-71
2022/11/05 10:01:14;;;;;;;15.88;7.28;;;;;;;9.18;100.00;101796.38;5165649;28;20033;-72
2022/11/05 10:03:48;;;;;;;14.25;6.57;;;;;;;9.16;100.00;101801.03;5165603;28;20437;-71
2022/11/05 10:06:22;;;;;;;12.43;6.25;;;;;;;9.22;100.00;101800.47;5165990;28;20097;-71
2022/11/05 10:09:07;;;;;;;16.73;6.35;;;;;;;9.24;100.00;101805.72;5164645;28;20022;-72
2022/11/05 10:11:45;;;;;;;14.43;5.40;;;;;;;9.21;100.00;101798.78;5165739;28;20030;-72
2022/11/05 10:14:22;;;;;;;17.38;5.90;;;;;;;9.24;100.00;101803.06;5165696;28;20501;-72
2022/11/05 10:17:00;;;;;;;14.05;4.85;;;;;;;9.30;100.00;101803.34;5165280;28;20104;-71
2022/11/05 10:19:42;;;;;;;12.88;4.90;;;;;;;9.37;100.00;101805.47;5165352;28;20084;-72
2022/11/05 10:22:15;;;;;;;10.20;4.57;;;;;;;9.39;100.00;101812.41;5165265;28;20022;-72
2022/11/05 10:24:48;;;;;;;8.98;4.25;;;;;;;9.43;100.00;101805.78;5167511;28;20030;-72
2022/11/05 10:27:22;;;;;;;14.50;4.97;;;;;;;9.54;100.00;101807.53;5166919;28;20022;-72
2022/11/05 10:29:53;;;;;;;14.15;5.38;;;;;;;9.57;100.00;101805.41;5165071;28;20050;-73
2022/11/05 10:32:38;;;;;;;15.25;6.18;;;;;;;9.63;100.00;101808.53;5159597;28;20026;-72
2022/11/05 10:35:17;;;;;;;13.60;5.40;;;;;;;9.57;100.00;101805.41;5165348;28;20491;-72
2022/11/05 10:37:49;;;;;;;12.00;5.80;;;;;;;9.50;100.00;101800.75;5164932;28;20026;-72
2022/11/05 10:40:35;;;;;;;15.95;5.75;;;;;;;9.49;100.00;101805.25;5164772;28;20080;-72
2022/11/05 10:43:17;;;;;;;15.00;6.00;;;;;;;9.66;100.00;101809.09;5165188;28;20030;-72
2022/11/05 10:45:58;;;;;;;12.27;5.82;;;;;;;9.79;100.00;101814.22;5165003;28;20109;-73
2022/11/05 10:49:05;;;;;;;14.07;5.82;;;;;;;9.84;100.00;101807.47;5164138;28;20053;-72
2022/11/05 10:51:36;;;;;;;13.05;5.97;;;;;;;10.10;100.00;101802.41;5164897;28;20034;-72
2022/11/05 10:54:19;;;;;;;16.60;5.40;;;;;;;10.51;100.00;101807.69;5163849;28;20033;-72
2022/11/05 10:56:50;;;;;;;9.45;4.28;;;;;;;10.78;100.00;101796.19;5151237;28;20509;-72
2022/11/05 10:59:28;;;;;;;8.43;4.68;;;;;;;10.82;100.00;101797.59;5164400;28;20093;-73
2022/11/05 11:02:13;;;;;;;15.18;4.43;;;;;;;11.01;100.00;101796.72;5164429;28;20027;-72
2022/11/05 11:04:54;;;;;;;12.00;4.03;;;;;;;10.99;100.00;101794.16;5164400;28;20030;-72
2022/11/05 11:07:25;;;;;;;9.98;4.15;;;;;;;11.01;100.00;101786.81;5163391;28;20023;-73
2022/11/05 11:09:56;;;;;;;9.98;3.97;;;;;;;11.28;100.00;101780.63;5164114;28;20081;-72
2022/11/05 11:12:34;;;;;;;8.98;3.47;;;;;;;11.40;100.00;101782.13;5152112;28;20029;-73
2022/11/05 11:15:20;;;;;;;14.07;3.60;;;;;;;11.38;100.00;101788.63;5142308;28;20089;-73
2022/11/05 11:17:50;;;;;;;9.52;3.60;;;;;;;11.54;100.00;101788.84;5148442;28;20035;-73
2022/11/05 11:20:21;;;;;;;8.45;3.53;;;;;;;11.65;100.00;101785.97;5161979;28;20064;-72
2022/11/05 11:22:57;;;;;;;8.88;3.95;;;;;;;11.64;100.00;101781.56;5161968;28;20026;-73
2022/11/05 11:25:45;;;;;;;8.02;3.42;;;;;;;11.61;100.00;101771.13;5158671;28;20110;-73
2022/11/05 11:28:31;;;;;;;7.10;3.97;;;;;;;11.70;100.00;101776.56;5153918;28;20401;-73
2022/11/05 11:31:16;;;;;;;11.27;3.78;;;;;;;11.82;100.00;101770.88;5160914;28;20486;-73
2022/11/05 11:33:50;;;;;;;7.90;4.03;;;;;;;11.85;100.00;101769.75;5159243;28;20022;-73
2022/11/05 11:36:27;;;;;;;10.23;3.13;;;;;;;11.95;100.00;101772.34;5160853;28;20104;-74
2022/11/05 11:39:22;;;;;;;7.57;3.22;;;;;;;12.21;100.00;101783.22;5160268;28;20446;-73
2022/11/05 11:41:59;;;;;;;7.15;3.67;;;;;;;11.99;100.00;101777.25;5161302;28;20041;-73
2022/11/05 11:44:34;;;;;;;5.88;3.03;;;;;;;11.99;100.00;101766.50;5160512;28;20030;-73
2022/11/05 11:47:11;;;;;;;7.15;3.55;;;;;;;12.03;100.00;101767.91;5160173;28;20478;-73
2022/11/05 11:49:50;;;;;;;14.00;3.47;;;;;;;12.28;100.00;101773.50;5162517;28;20054;-73
2022/11/05 11:52:32;;;;;;;8.05;3.35;;;;;;;12.35;100.00;101761.09;5162457;28;20034;-73
2022/11/05 11:55:30;;;;;;;5.57;2.55;;;;;;;12.04;100.00;101757.97;5161462;28;20423;-74
2022/11/05 11:58:11;;;;;;;11.95;3.40;;;;;;;12.23;100.00;101759.66;5160978;28;20030;-73
2022/11/05 12:00:48;;;;;;;9.57;3.08;;;;;;;12.27;100.00;101766.44;5158063;28;20026;-73
2022/11/05 12:03:43;;;;;;;8.85;2.88;;;;;;;12.31;100.00;101749.00;5153602;28;20087;-72
2022/11/05 12:06:40;;;;;;;11.75;3.00;;;;;;;12.51;100.00;101747.81;5158022;28;20134;-74
2022/11/05 12:09:27;;;;;;;9.95;2.85;;;;;;;12.56;100.00;101753.56;5160522;28;20038;-73
2022/11/05 12:12:06;;;;;;;5.13;2.58;;;;;;;12.56;100.00;101750.88;5160288;28;20489;-74
2022/11/05 12:14:39;;;;;;;9.75;2.92;;;;;;;12.47;100.00;101743.72;5161446;28;20096;-74
2022/11/05 12:17:45;;;;;;;5.45;2.22;;;;;;;12.38;100.00;101747.34;5159748;28;20062;-73
2022/11/05 12:20:34;;;;;;;;;;;;;;;12.40;100.00;101740.84;5161761;28;20449;-73
2022/11/05 12:23:28;;;;;;;11.35;3.20;;;;;;;12.26;100.00;101737.84;5161922;28;19906;-73
2022/11/05 12:26:24;;;;;;;8.90;2.60;;;;;;;12.29;100.00;101740.22;5154457;28;20446;-73
2022/11/05 12:29:16;;;;;;;7.22;2.33;;;;;;;12.18;100.00;101731.38;5158325;28;20033;-73
2022/11/05 12:31:52;;;;;;;8.43;2.85;;;;;;;12.08;100.00;101730.63;5155388;28;20097;-73
2022/11/05 12:34:54;;;;;;;9.65;2.63;;;;;;;12.16;100.00;101728.00;5161203;28;20058;-73